sensor_id;sensor_type;location;lat;lon;timestamp;P1;durP1;ratioP1;P2;durP2;ratioP2
74898;SDS011;63458;48.210;16.338;2023-03-14T00:01:31;10.88;;;5.68;;
74898;SDS011;63458;48.210;16.338;2023-03-14T00:03:57;9.15;;;4.82;;
74898;SDS011;63458;48.210;16.338;2023-03-14T00:06:24;8.90;;;4.45;;
74898;SDS011;63458;48.210;16.338;2023-03-14T00:08:50;10.48;;;4.70;;
74898;SDS011;63458;48.210;16.338;2023-03-14T00:11:18;9.95;;;4.82;;
74898;SDS011;63458;48.210;16.338;2023-03-14T00:13:47;10.52;;;4.78;;
74898;SDS011;63458;48.210;16.338;2023-03-14T00:16:16;9.20;;;4.80;;
74898;SDS011;63458;48.210;16.338;2023-03-14T00:18:43;7.75;;;4.32;;
74898;SDS011;63458;48.210;16.338;2023-03-14T00:21:09;8.13;;;4.18;;
74898;SDS011;63458;48.210;16.338;2023-03-14T00:23:36;10.25;;;4.80;;
74898;SDS011;63458;48.210;16.338;2023-03-14T00:26:13;8.20;;;3.97;;
74898;SDS011;63458;48.210;16.338;2023-03-14T00:28:40;9.32;;;3.97;;
74898;SDS011;63458;48.210;16.338;2023-03-14T00:31:07;8.13;;;4.20;;
74898;SDS011;63458;48.210;16.338;2023-03-14T00:33:33;8.00;;;3.85;;
74898;SDS011;63458;48.210;16.338;2023-03-14T00:36:00;9.68;;;4.28;;
74898;SDS011;63458;48.210;16.338;2023-03-14T00:40:53;8.32;;;3.75;;
74898;SDS011;63458;48.210;16.338;2023-03-14T00:43:20;7.65;;;3.95;;
74898;SDS011;63458;48.210;16.338;2023-03-14T00:45:49;8.73;;;4.05;;
74898;SDS011;63458;48.210;16.338;2023-03-14T00:48:15;9.52;;;3.78;;
74898;SDS011;63458;48.210;16.338;2023-03-14T00:50:42;10.80;;;4.50;;
74898;SDS011;63458;48.210;16.338;2023-03-14T00:53:08;8.10;;;3.80;;
74898;SDS011;63458;48.210;16.338;2023-03-14T00:55:37;10.35;;;4.10;;
74898;SDS011;63458;48.210;16.338;2023-03-14T00:58:04;9.23;;;4.25;;
74898;SDS011;63458;48.210;16.338;2023-03-14T01:00:30;10.15;;;3.70;;
74898;SDS011;63458;48.210;16.338;2023-03-14T01:02:56;10.13;;;4.22;;
74898;SDS011;63458;48.210;16.338;2023-03-14T01:05:22;8.35;;;4.00;;
74898;SDS011;63458;48.210;16.338;2023-03-14T01:07:48;7.82;;;4.13;;
74898;SDS011;63458;48.210;16.338;2023-03-14T01:10:14;9.07;;;3.72;;
74898;SDS011;63458;48.210;16.338;2023-03-14T01:12:40;8.07;;;3.58;;
74898;SDS011;63458;48.210;16.338;2023-03-14T01:15:07;7.05;;;3.78;;
74898;SDS011;63458;48.210;16.338;2023-03-14T01:17:33;7.38;;;3.67;;
74898;SDS011;63458;48.210;16.338;2023-03-14T01:20:00;9.70;;;3.80;;
74898;SDS011;63458;48.210;16.338;2023-03-14T01:22:26;8.20;;;4.32;;
74898;SDS011;63458;48.210;16.338;2023-03-14T01:24:52;8.50;;;3.90;;
74898;SDS011;63458;48.210;16.338;2023-03-14T01:27:18;8.68;;;3.67;;
74898;SDS011;63458;48.210;16.338;2023-03-14T01:29:44;9.95;;;4.50;;
74898;SDS011;63458;48.210;16.338;2023-03-14T01:32:12;8.80;;;4.25;;
74898;SDS011;63458;48.210;16.338;2023-03-14T01:34:38;8.57;;;3.90;;
74898;SDS011;63458;48.210;16.338;2023-03-14T01:37:04;10.07;;;4.13;;
74898;SDS011;63458;48.210;16.338;2023-03-14T01:39:32;23.70;;;17.27;;
74898;SDS011;63458;48.210;16.338;2023-03-14T01:41:59;60.47;;;45.33;;
74898;SDS011;63458;48.210;16.338;2023-03-14T01:44:25;26.20;;;19.02;;
74898;SDS011;63458;48.210;16.338;2023-03-14T01:46:51;28.00;;;22.45;;
74898;SDS011;63458;48.210;16.338;2023-03-14T01:49:28;14.55;;;9.07;;
74898;SDS011;63458;48.210;16.338;2023-03-14T01:51:59;9.70;;;5.55;;
74898;SDS011;63458;48.210;16.338;2023-03-14T01:56:53;9.52;;;4.47;;
74898;SDS011;63458;48.210;16.338;2023-03-14T01:59:20;9.35;;;5.30;;
74898;SDS011;63458;48.210;16.338;2023-03-14T02:01:47;9.07;;;4.97;;
74898;SDS011;63458;48.210;16.338;2023-03-14T02:04:14;9.10;;;4.60;;
74898;SDS011;63458;48.210;16.338;2023-03-14T02:06:51;8.52;;;4.55;;
74898;SDS011;63458;48.210;16.338;2023-03-14T02:09:19;8.05;;;4.85;;
74898;SDS011;63458;48.210;16.338;2023-03-14T02:11:45;9.57;;;4.55;;
74898;SDS011;63458;48.210;16.338;2023-03-14T02:14:14;8.85;;;5.07;;
74898;SDS011;63458;48.210;16.338;2023-03-14T02:16:42;8.32;;;4.60;;
74898;SDS011;63458;48.210;16.338;2023-03-14T02:19:08;10.00;;;5.07;;
74898;SDS011;63458;48.210;16.338;2023-03-14T02:21:38;9.98;;;5.00;;
74898;SDS011;63458;48.210;16.338;2023-03-14T02:26:38;10.55;;;4.75;;
74898;SDS011;63458;48.210;16.338;2023-03-14T02:29:06;8.02;;;4.38;;
74898;SDS011;63458;48.210;16.338;2023-03-14T02:31:32;10.13;;;4.40;;
74898;SDS011;63458;48.210;16.338;2023-03-14T02:33:58;8.52;;;4.72;;
74898;SDS011;63458;48.210;16.338;2023-03-14T02:36:25;8.05;;;4.32;;
74898;SDS011;63458;48.210;16.338;2023-03-14T02:39:04;9.45;;;4.60;;
74898;SDS011;63458;48.210;16.338;2023-03-14T02:41:32;8.18;;;4.07;;
74898;SDS011;63458;48.210;16.338;2023-03-14T02:43:58;9.70;;;4.53;;
74898;SDS011;63458;48.210;16.338;2023-03-14T02:46:24;9.65;;;4.40;;
74898;SDS011;63458;48.210;16.338;2023-03-14T02:51:20;8.57;;;4.88;;
74898;SDS011;63458;48.210;16.338;2023-03-14T02:53:46;9.43;;;4.97;;
74898;SDS011;63458;48.210;16.338;2023-03-14T02:56:12;9.80;;;5.22;;
74898;SDS011;63458;48.210;16.338;2023-03-14T02:58:38;10.18;;;4.90;;
74898;SDS011;63458;48.210;16.338;2023-03-14T03:01:04;9.38;;;4.90;;
74898;SDS011;63458;48.210;16.338;2023-03-14T03:03:31;10.77;;;4.72;;
74898;SDS011;63458;48.210;16.338;2023-03-14T03:05:57;9.05;;;5.15;;
74898;SDS011;63458;48.210;16.338;2023-03-14T03:08:24;9.57;;;4.70;;
74898;SDS011;63458;48.210;16.338;2023-03-14T03:10:51;9.68;;;5.07;;
74898;SDS011;63458;48.210;16.338;2023-03-14T03:13:17;13.35;;;5.40;;
74898;SDS011;63458;48.210;16.338;2023-03-14T03:15:44;9.10;;;4.82;;
74898;SDS011;63458;48.210;16.338;2023-03-14T03:18:10;9.13;;;4.22;;
74898;SDS011;63458;48.210;16.338;2023-03-14T03:20:37;11.48;;;5.05;;
74898;SDS011;63458;48.210;16.338;2023-03-14T03:23:03;8.00;;;3.88;;
74898;SDS011;63458;48.210;16.338;2023-03-14T03:25:29;9.13;;;4.70;;
74898;SDS011;63458;48.210;16.338;2023-03-14T03:27:55;10.43;;;4.47;;
74898;SDS011;63458;48.210;16.338;2023-03-14T03:30:21;8.65;;;4.30;;
74898;SDS011;63458;48.210;16.338;2023-03-14T03:32:47;11.48;;;4.70;;
74898;SDS011;63458;48.210;16.338;2023-03-14T03:35:13;8.13;;;4.10;;
74898;SDS011;63458;48.210;16.338;2023-03-14T03:37:39;11.93;;;4.25;;
74898;SDS011;63458;48.210;16.338;2023-03-14T03:40:06;8.65;;;3.85;;
74898;SDS011;63458;48.210;16.338;2023-03-14T03:42:32;8.43;;;4.28;;
74898;SDS011;63458;48.210;16.338;2023-03-14T03:44:59;8.65;;;4.65;;
74898;SDS011;63458;48.210;16.338;2023-03-14T03:47:25;9.18;;;4.10;;
74898;SDS011;63458;48.210;16.338;2023-03-14T03:49:51;10.80;;;5.85;;
74898;SDS011;63458;48.210;16.338;2023-03-14T03:52:17;11.00;;;4.78;;
74898;SDS011;63458;48.210;16.338;2023-03-14T03:54:43;9.75;;;5.20;;
74898;SDS011;63458;48.210;16.338;2023-03-14T03:57:09;11.00;;;5.85;;
74898;SDS011;63458;48.210;16.338;2023-03-14T03:59:35;8.38;;;5.10;;
74898;SDS011;63458;48.210;16.338;2023-03-14T04:02:03;10.05;;;5.75;;
74898;SDS011;63458;48.210;16.338;2023-03-14T04:04:29;11.70;;;5.93;;
74898;SDS011;63458;48.210;16.338;2023-03-14T04:06:55;9.38;;;5.18;;
74898;SDS011;63458;48.210;16.338;2023-03-14T04:09:21;10.07;;;6.07;;
74898;SDS011;63458;48.210;16.338;2023-03-14T04:11:47;10.65;;;5.43;;
74898;SDS011;63458;48.210;16.338;2023-03-14T04:14:13;9.90;;;5.50;;
74898;SDS011;63458;48.210;16.338;2023-03-14T04:16:39;8.85;;;5.22;;
74898;SDS011;63458;48.210;16.338;2023-03-14T04:19:06;9.77;;;5.47;;
74898;SDS011;63458;48.210;16.338;2023-03-14T04:21:32;10.52;;;6.25;;
74898;SDS011;63458;48.210;16.338;2023-03-14T04:23:58;11.50;;;6.82;;
74898;SDS011;63458;48.210;16.338;2023-03-14T04:26:24;9.98;;;5.93;;
74898;SDS011;63458;48.210;16.338;2023-03-14T04:28:50;9.40;;;5.97;;
74898;SDS011;63458;48.210;16.338;2023-03-14T04:31:17;9.77;;;5.10;;
74898;SDS011;63458;48.210;16.338;2023-03-14T04:33:43;9.95;;;5.82;;
74898;SDS011;63458;48.210;16.338;2023-03-14T04:36:09;8.75;;;5.05;;
74898;SDS011;63458;48.210;16.338;2023-03-14T04:38:36;8.20;;;4.80;;
74898;SDS011;63458;48.210;16.338;2023-03-14T04:41:02;8.93;;;5.05;;
74898;SDS011;63458;48.210;16.338;2023-03-14T04:43:28;10.02;;;4.60;;
74898;SDS011;63458;48.210;16.338;2023-03-14T04:45:54;8.55;;;4.63;;
74898;SDS011;63458;48.210;16.338;2023-03-14T04:48:20;9.50;;;4.13;;
74898;SDS011;63458;48.210;16.338;2023-03-14T04:50:47;9.93;;;5.32;;
74898;SDS011;63458;48.210;16.338;2023-03-14T04:53:14;9.00;;;4.97;;
74898;SDS011;63458;48.210;16.338;2023-03-14T04:55:40;10.10;;;5.25;;
74898;SDS011;63458;48.210;16.338;2023-03-14T04:58:06;8.65;;;4.30;;
74898;SDS011;63458;48.210;16.338;2023-03-14T05:00:32;9.68;;;5.60;;
74898;SDS011;63458;48.210;16.338;2023-03-14T05:02:58;9.02;;;5.20;;
74898;SDS011;63458;48.210;16.338;2023-03-14T05:05:24;10.20;;;4.95;;
74898;SDS011;63458;48.210;16.338;2023-03-14T05:07:50;10.00;;;5.22;;
74898;SDS011;63458;48.210;16.338;2023-03-14T05:10:16;8.77;;;4.80;;
74898;SDS011;63458;48.210;16.338;2023-03-14T05:12:42;8.43;;;4.63;;
74898;SDS011;63458;48.210;16.338;2023-03-14T05:15:08;9.00;;;4.53;;
74898;SDS011;63458;48.210;16.338;2023-03-14T05:17:35;9.07;;;5.15;;
74898;SDS011;63458;48.210;16.338;2023-03-14T05:20:01;9.80;;;4.50;;
74898;SDS011;63458;48.210;16.338;2023-03-14T05:22:32;11.02;;;5.22;;
74898;SDS011;63458;48.210;16.338;2023-03-14T05:24:58;8.73;;;5.00;;
74898;SDS011;63458;48.210;16.338;2023-03-14T05:27:24;8.30;;;4.72;;
74898;SDS011;63458;48.210;16.338;2023-03-14T05:29:50;9.23;;;4.47;;
74898;SDS011;63458;48.210;16.338;2023-03-14T05:32:16;8.77;;;4.35;;
74898;SDS011;63458;48.210;16.338;2023-03-14T05:34:43;8.52;;;4.43;;
74898;SDS011;63458;48.210;16.338;2023-03-14T05:37:09;9.95;;;4.50;;
74898;SDS011;63458;48.210;16.338;2023-03-14T05:39:35;9.32;;;4.72;;
74898;SDS011;63458;48.210;16.338;2023-03-14T05:42:01;8.13;;;5.65;;
74898;SDS011;63458;48.210;16.338;2023-03-14T05:44:27;9.35;;;4.72;;
74898;SDS011;63458;48.210;16.338;2023-03-14T05:46:53;10.02;;;4.70;;
74898;SDS011;63458;48.210;16.338;2023-03-14T05:49:19;9.52;;;4.95;;
74898;SDS011;63458;48.210;16.338;2023-03-14T05:51:45;8.75;;;5.05;;
74898;SDS011;63458;48.210;16.338;2023-03-14T05:54:11;9.23;;;4.45;;
74898;SDS011;63458;48.210;16.338;2023-03-14T05:56:37;10.32;;;4.65;;
74898;SDS011;63458;48.210;16.338;2023-03-14T05:59:03;8.57;;;5.13;;
74898;SDS011;63458;48.210;16.338;2023-03-14T06:01:29;9.50;;;4.85;;
74898;SDS011;63458;48.210;16.338;2023-03-14T06:03:55;9.02;;;5.32;;
74898;SDS011;63458;48.210;16.338;2023-03-14T06:06:21;9.13;;;5.07;;
74898;SDS011;63458;48.210;16.338;2023-03-14T06:08:47;9.88;;;5.30;;
74898;SDS011;63458;48.210;16.338;2023-03-14T06:11:13;12.48;;;5.32;;
74898;SDS011;63458;48.210;16.338;2023-03-14T06:13:40;9.23;;;4.90;;
74898;SDS011;63458;48.210;16.338;2023-03-14T06:16:06;9.57;;;5.60;;
74898;SDS011;63458;48.210;16.338;2023-03-14T06:18:32;9.15;;;5.47;;
74898;SDS011;63458;48.210;16.338;2023-03-14T06:20:58;9.20;;;5.22;;
74898;SDS011;63458;48.210;16.338;2023-03-14T06:23:24;10.15;;;5.15;;
74898;SDS011;63458;48.210;16.338;2023-03-14T06:25:50;10.75;;;5.35;;
74898;SDS011;63458;48.210;16.338;2023-03-14T06:28:16;13.23;;;5.43;;
74898;SDS011;63458;48.210;16.338;2023-03-14T06:30:42;10.40;;;5.53;;
74898;SDS011;63458;48.210;16.338;2023-03-14T06:33:08;11.45;;;5.53;;
74898;SDS011;63458;48.210;16.338;2023-03-14T06:35:34;9.57;;;5.18;;
74898;SDS011;63458;48.210;16.338;2023-03-14T06:38:00;10.48;;;5.32;;
74898;SDS011;63458;48.210;16.338;2023-03-14T06:40:26;9.65;;;5.72;;
74898;SDS011;63458;48.210;16.338;2023-03-14T06:42:53;9.20;;;5.60;;
74898;SDS011;63458;48.210;16.338;2023-03-14T06:45:19;13.75;;;5.82;;
74898;SDS011;63458;48.210;16.338;2023-03-14T06:47:45;10.77;;;5.53;;
74898;SDS011;63458;48.210;16.338;2023-03-14T06:50:11;10.65;;;5.80;;
74898;SDS011;63458;48.210;16.338;2023-03-14T06:52:37;11.25;;;5.90;;
74898;SDS011;63458;48.210;16.338;2023-03-14T06:55:06;15.65;;;6.95;;
74898;SDS011;63458;48.210;16.338;2023-03-14T06:57:33;9.23;;;5.72;;
74898;SDS011;63458;48.210;16.338;2023-03-14T06:59:59;12.32;;;6.45;;
74898;SDS011;63458;48.210;16.338;2023-03-14T07:02:25;12.60;;;5.65;;
74898;SDS011;63458;48.210;16.338;2023-03-14T07:04:51;10.30;;;6.05;;
74898;SDS011;63458;48.210;16.338;2023-03-14T07:07:17;11.07;;;5.90;;
74898;SDS011;63458;48.210;16.338;2023-03-14T07:09:43;13.73;;;6.75;;
74898;SDS011;63458;48.210;16.338;2023-03-14T07:12:09;13.85;;;8.05;;
74898;SDS011;63458;48.210;16.338;2023-03-14T07:14:35;11.18;;;6.70;;
74898;SDS011;63458;48.210;16.338;2023-03-14T07:17:01;11.48;;;6.03;;
74898;SDS011;63458;48.210;16.338;2023-03-14T07:19:27;10.60;;;6.20;;
74898;SDS011;63458;48.210;16.338;2023-03-14T07:21:53;11.20;;;6.68;;
74898;SDS011;63458;48.210;16.338;2023-03-14T07:24:19;10.80;;;6.80;;
74898;SDS011;63458;48.210;16.338;2023-03-14T07:26:45;11.27;;;6.53;;
74898;SDS011;63458;48.210;16.338;2023-03-14T07:29:11;11.75;;;6.38;;
74898;SDS011;63458;48.210;16.338;2023-03-14T07:31:37;11.43;;;7.22;;
74898;SDS011;63458;48.210;16.338;2023-03-14T07:34:03;13.23;;;7.68;;
74898;SDS011;63458;48.210;16.338;2023-03-14T07:36:29;11.13;;;6.78;;
74898;SDS011;63458;48.210;16.338;2023-03-14T07:38:55;11.75;;;5.68;;
74898;SDS011;63458;48.210;16.338;2023-03-14T07:41:21;9.55;;;6.00;;
74898;SDS011;63458;48.210;16.338;2023-03-14T07:43:48;13.55;;;6.85;;
74898;SDS011;63458;48.210;16.338;2023-03-14T07:46:14;10.52;;;5.97;;
74898;SDS011;63458;48.210;16.338;2023-03-14T07:48:40;11.88;;;6.47;;
74898;SDS011;63458;48.210;16.338;2023-03-14T07:51:06;10.90;;;6.68;;
74898;SDS011;63458;48.210;16.338;2023-03-14T07:53:33;7.55;;;3.33;;
74898;SDS011;63458;48.210;16.338;2023-03-14T07:55:59;5.47;;;2.20;;
74898;SDS011;63458;48.210;16.338;2023-03-14T07:58:25;4.82;;;1.88;;
74898;SDS011;63458;48.210;16.338;2023-03-14T08:00:51;3.38;;;1.30;;
74898;SDS011;63458;48.210;16.338;2023-03-14T08:03:17;3.95;;;1.45;;
74898;SDS011;63458;48.210;16.338;2023-03-14T08:05:43;4.75;;;1.90;;
74898;SDS011;63458;48.210;16.338;2023-03-14T08:08:09;3.17;;;1.50;;
74898;SDS011;63458;48.210;16.338;2023-03-14T08:10:36;2.95;;;1.20;;
74898;SDS011;63458;48.210;16.338;2023-03-14T08:13:02;4.22;;;1.90;;
74898;SDS011;63458;48.210;16.338;2023-03-14T08:15:28;4.68;;;1.80;;
74898;SDS011;63458;48.210;16.338;2023-03-14T08:17:55;2.53;;;1.15;;
74898;SDS011;63458;48.210;16.338;2023-03-14T08:20:22;4.95;;;1.70;;
74898;SDS011;63458;48.210;16.338;2023-03-14T08:22:49;3.60;;;1.50;;
74898;SDS011;63458;48.210;16.338;2023-03-14T08:25:15;4.57;;;1.80;;
74898;SDS011;63458;48.210;16.338;2023-03-14T08:27:41;2.33;;;1.02;;
74898;SDS011;63458;48.210;16.338;2023-03-14T08:30:09;3.47;;;1.20;;
74898;SDS011;63458;48.210;16.338;2023-03-14T08:32:35;1.88;;;0.90;;
74898;SDS011;63458;48.210;16.338;2023-03-14T08:35:02;1.25;;;1.13;;
74898;SDS011;63458;48.210;16.338;2023-03-14T08:37:28;1.83;;;1.20;;
74898;SDS011;63458;48.210;16.338;2023-03-14T08:39:54;3.65;;;1.50;;
74898;SDS011;63458;48.210;16.338;2023-03-14T08:42:20;2.50;;;0.93;;
74898;SDS011;63458;48.210;16.338;2023-03-14T08:44:46;4.18;;;1.50;;
74898;SDS011;63458;48.210;16.338;2023-03-14T08:47:12;3.55;;;1.50;;
74898;SDS011;63458;48.210;16.338;2023-03-14T08:49:38;8.65;;;2.83;;
74898;SDS011;63458;48.210;16.338;2023-03-14T08:52:04;3.03;;;1.13;;
74898;SDS011;63458;48.210;16.338;2023-03-14T08:54:31;3.28;;;1.10;;
74898;SDS011;63458;48.210;16.338;2023-03-14T08:56:57;3.15;;;1.05;;
74898;SDS011;63458;48.210;16.338;2023-03-14T08:59:24;5.63;;;1.42;;
74898;SDS011;63458;48.210;16.338;2023-03-14T09:01:50;4.60;;;1.55;;
74898;SDS011;63458;48.210;16.338;2023-03-14T09:04:16;3.55;;;1.60;;
74898;SDS011;63458;48.210;16.338;2023-03-14T09:06:42;2.55;;;1.20;;
74898;SDS011;63458;48.210;16.338;2023-03-14T09:09:08;3.95;;;1.10;;
74898;SDS011;63458;48.210;16.338;2023-03-14T09:11:34;1.52;;;0.75;;
74898;SDS011;63458;48.210;16.338;2023-03-14T09:14:00;2.53;;;1.20;;
74898;SDS011;63458;48.210;16.338;2023-03-14T09:16:26;2.97;;;1.20;;
74898;SDS011;63458;48.210;16.338;2023-03-14T09:18:52;3.15;;;1.13;;
74898;SDS011;63458;48.210;16.338;2023-03-14T09:21:20;2.88;;;0.90;;
74898;SDS011;63458;48.210;16.338;2023-03-14T09:23:46;2.50;;;1.10;;
74898;SDS011;63458;48.210;16.338;2023-03-14T09:26:12;2.85;;;1.00;;
74898;SDS011;63458;48.210;16.338;2023-03-14T09:28:38;2.28;;;0.75;;
74898;SDS011;63458;48.210;16.338;2023-03-14T09:31:05;1.98;;;0.98;;
74898;SDS011;63458;48.210;16.338;2023-03-14T09:33:31;3.33;;;1.10;;
74898;SDS011;63458;48.210;16.338;2023-03-14T09:36:00;2.67;;;1.10;;
74898;SDS011;63458;48.210;16.338;2023-03-14T09:38:26;2.80;;;1.10;;
74898;SDS011;63458;48.210;16.338;2023-03-14T09:40:52;4.45;;;1.55;;
74898;SDS011;63458;48.210;16.338;2023-03-14T09:43:19;5.28;;;1.70;;
74898;SDS011;63458;48.210;16.338;2023-03-14T09:45:46;5.35;;;1.48;;
74898;SDS011;63458;48.210;16.338;2023-03-14T09:48:20;4.30;;;1.60;;
74898;SDS011;63458;48.210;16.338;2023-03-14T09:50:51;4.53;;;1.75;;
74898;SDS011;63458;48.210;16.338;2023-03-14T09:53:20;4.97;;;1.58;;
74898;SDS011;63458;48.210;16.338;2023-03-14T09:55:48;6.22;;;2.03;;
74898;SDS011;63458;48.210;16.338;2023-03-14T10:05:32;10.95;;;4.57;;
74898;SDS011;63458;48.210;16.338;2023-03-14T10:07:58;8.43;;;4.15;;
74898;SDS011;63458;48.210;16.338;2023-03-14T10:10:25;11.50;;;3.03;;
74898;SDS011;63458;48.210;16.338;2023-03-14T10:12:55;6.63;;;2.45;;
74898;SDS011;63458;48.210;16.338;2023-03-14T10:15:31;5.03;;;2.08;;
74898;SDS011;63458;48.210;16.338;2023-03-14T10:17:58;6.63;;;2.50;;
74898;SDS011;63458;48.210;16.338;2023-03-14T10:20:35;6.35;;;1.88;;
74898;SDS011;63458;48.210;16.338;2023-03-14T10:23:02;4.75;;;1.95;;
74898;SDS011;63458;48.210;16.338;2023-03-14T10:25:29;6.68;;;2.40;;
74898;SDS011;63458;48.210;16.338;2023-03-14T10:27:56;5.30;;;2.15;;
74898;SDS011;63458;48.210;16.338;2023-03-14T10:32:54;5.75;;;1.90;;
74898;SDS011;63458;48.210;16.338;2023-03-14T10:35:21;4.57;;;1.88;;
74898;SDS011;63458;48.210;16.338;2023-03-14T10:37:52;5.40;;;2.10;;
74898;SDS011;63458;48.210;16.338;2023-03-14T10:40:20;5.10;;;1.80;;
74898;SDS011;63458;48.210;16.338;2023-03-14T10:42:48;5.22;;;1.90;;
74898;SDS011;63458;48.210;16.338;2023-03-14T10:45:32;4.80;;;1.83;;
74898;SDS011;63458;48.210;16.338;2023-03-14T10:48:05;3.35;;;1.30;;
74898;SDS011;63458;48.210;16.338;2023-03-14T10:50:32;3.03;;;1.10;;
74898;SDS011;63458;48.210;16.338;2023-03-14T10:53:00;2.33;;;0.90;;
74898;SDS011;63458;48.210;16.338;2023-03-14T10:55:38;2.30;;;1.20;;
74898;SDS011;63458;48.210;16.338;2023-03-14T10:58:08;1.40;;;0.82;;
74898;SDS011;63458;48.210;16.338;2023-03-14T11:00:42;2.53;;;1.10;;
74898;SDS011;63458;48.210;16.338;2023-03-14T11:03:10;1.73;;;0.88;;
74898;SDS011;63458;48.210;16.338;2023-03-14T11:05:46;2.70;;;0.90;;
74898;SDS011;63458;48.210;16.338;2023-03-14T11:08:20;2.05;;;0.88;;
74898;SDS011;63458;48.210;16.338;2023-03-14T11:10:51;3.85;;;1.17;;
74898;SDS011;63458;48.210;16.338;2023-03-14T11:13:53;2.70;;;0.95;;
74898;SDS011;63458;48.210;16.338;2023-03-14T11:29:02;2.25;;;0.85;;
74898;SDS011;63458;48.210;16.338;2023-03-14T11:31:35;1.95;;;0.80;;
74898;SDS011;63458;48.210;16.338;2023-03-14T11:36:41;3.65;;;1.10;;
74898;SDS011;63458;48.210;16.338;2023-03-14T11:39:10;1.85;;;0.90;;
74898;SDS011;63458;48.210;16.338;2023-03-14T11:41:41;1.90;;;0.90;;
74898;SDS011;63458;48.210;16.338;2023-03-14T11:44:10;2.17;;;1.10;;
74898;SDS011;63458;48.210;16.338;2023-03-14T11:46:48;2.58;;;0.80;;
74898;SDS011;63458;48.210;16.338;2023-03-14T11:49:23;0.57;;;0.43;;
74898;SDS011;63458;48.210;16.338;2023-03-14T11:51:51;2.10;;;0.77;;
74898;SDS011;63458;48.210;16.338;2023-03-14T11:54:31;1.80;;;0.80;;
74898;SDS011;63458;48.210;16.338;2023-03-14T11:57:01;3.95;;;1.23;;
74898;SDS011;63458;48.210;16.338;2023-03-14T12:09:11;3.67;;;0.80;;
74898;SDS011;63458;48.210;16.338;2023-03-14T12:14:21;3.03;;;1.13;;
74898;SDS011;63458;48.210;16.338;2023-03-14T12:16:48;2.53;;;0.85;;
74898;SDS011;63458;48.210;16.338;2023-03-14T12:19:22;4.07;;;1.30;;
74898;SDS011;63458;48.210;16.338;2023-03-14T12:22:12;2.58;;;0.90;;
74898;SDS011;63458;48.210;16.338;2023-03-14T12:24:41;3.13;;;0.80;;
74898;SDS011;63458;48.210;16.338;2023-03-14T12:27:10;3.30;;;1.00;;
74898;SDS011;63458;48.210;16.338;2023-03-14T12:29:57;4.22;;;1.17;;
74898;SDS011;63458;48.210;16.338;2023-03-14T12:32:24;3.75;;;1.20;;
74898;SDS011;63458;48.210;16.338;2023-03-14T12:34:51;3.35;;;1.35;;
74898;SDS011;63458;48.210;16.338;2023-03-14T12:37:28;2.67;;;0.98;;
74898;SDS011;63458;48.210;16.338;2023-03-14T12:42:38;6.97;;;2.60;;
74898;SDS011;63458;48.210;16.338;2023-03-14T12:47:42;5.80;;;2.22;;
74898;SDS011;63458;48.210;16.338;2023-03-14T12:50:13;1.80;;;0.70;;
74898;SDS011;63458;48.210;16.338;2023-03-14T12:52:44;3.38;;;1.58;;
74898;SDS011;63458;48.210;16.338;2023-03-14T12:55:13;2.88;;;1.05;;
74898;SDS011;63458;48.210;16.338;2023-03-14T12:57:42;2.47;;;0.90;;
74898;SDS011;63458;48.210;16.338;2023-03-14T13:00:18;2.58;;;0.75;;
74898;SDS011;63458;48.210;16.338;2023-03-14T13:02:46;3.20;;;0.98;;
74898;SDS011;63458;48.210;16.338;2023-03-14T13:05:20;2.13;;;0.80;;
74898;SDS011;63458;48.210;16.338;2023-03-14T13:10:18;3.70;;;1.00;;
74898;SDS011;63458;48.210;16.338;2023-03-14T13:15:18;2.90;;;0.70;;
74898;SDS011;63458;48.210;16.338;2023-03-14T13:17:46;2.33;;;0.90;;
74898;SDS011;63458;48.210;16.338;2023-03-14T13:20:14;1.88;;;0.75;;
74898;SDS011;63458;48.210;16.338;2023-03-14T13:22:45;2.42;;;0.80;;
74898;SDS011;63458;48.210;16.338;2023-03-14T13:25:12;3.35;;;1.02;;
74898;SDS011;63458;48.210;16.338;2023-03-14T13:27:38;3.83;;;1.08;;
74898;SDS011;63458;48.210;16.338;2023-03-14T13:30:05;2.55;;;0.88;;
74898;SDS011;63458;48.210;16.338;2023-03-14T13:32:31;1.10;;;0.80;;
74898;SDS011;63458;48.210;16.338;2023-03-14T13:34:57;2.03;;;0.63;;
74898;SDS011;63458;48.210;16.338;2023-03-14T13:37:25;2.55;;;0.80;;
74898;SDS011;63458;48.210;16.338;2023-03-14T13:39:52;1.33;;;0.70;;
74898;SDS011;63458;48.210;16.338;2023-03-14T13:42:20;0.93;;;0.70;;
74898;SDS011;63458;48.210;16.338;2023-03-14T13:44:46;1.55;;;0.60;;
74898;SDS011;63458;48.210;16.338;2023-03-14T13:47:14;2.90;;;0.82;;
74898;SDS011;63458;48.210;16.338;2023-03-14T13:49:40;3.42;;;1.10;;
74898;SDS011;63458;48.210;16.338;2023-03-14T13:55:02;2.05;;;1.00;;
74898;SDS011;63458;48.210;16.338;2023-03-14T14:00:17;2.42;;;1.02;;
74898;SDS011;63458;48.210;16.338;2023-03-14T14:02:44;2.05;;;0.80;;
74898;SDS011;63458;48.210;16.338;2023-03-14T14:05:10;3.10;;;1.58;;
74898;SDS011;63458;48.210;16.338;2023-03-14T14:07:37;1.23;;;0.80;;
74898;SDS011;63458;48.210;16.338;2023-03-14T14:10:04;2.08;;;0.80;;
74898;SDS011;63458;48.210;16.338;2023-03-14T14:12:35;2.65;;;0.93;;
74898;SDS011;63458;48.210;16.338;2023-03-14T14:15:06;2.03;;;0.80;;
74898;SDS011;63458;48.210;16.338;2023-03-14T14:17:37;1.50;;;0.60;;
74898;SDS011;63458;48.210;16.338;2023-03-14T14:20:05;3.47;;;0.82;;
74898;SDS011;63458;48.210;16.338;2023-03-14T14:22:32;1.08;;;0.60;;
74898;SDS011;63458;48.210;16.338;2023-03-14T14:24:59;1.95;;;1.13;;
74898;SDS011;63458;48.210;16.338;2023-03-14T14:27:29;3.85;;;1.30;;
74898;SDS011;63458;48.210;16.338;2023-03-14T14:30:00;2.03;;;1.10;;
74898;SDS011;63458;48.210;16.338;2023-03-14T14:32:27;2.00;;;1.08;;
74898;SDS011;63458;48.210;16.338;2023-03-14T14:35:00;2.92;;;1.20;;
74898;SDS011;63458;48.210;16.338;2023-03-14T14:37:30;2.45;;;1.17;;
74898;SDS011;63458;48.210;16.338;2023-03-14T14:40:05;2.67;;;1.00;;
74898;SDS011;63458;48.210;16.338;2023-03-14T14:42:33;2.60;;;1.33;;
74898;SDS011;63458;48.210;16.338;2023-03-14T14:44:59;3.20;;;1.55;;
74898;SDS011;63458;48.210;16.338;2023-03-14T14:47:28;2.40;;;1.10;;
74898;SDS011;63458;48.210;16.338;2023-03-14T14:49:54;2.88;;;1.48;;
74898;SDS011;63458;48.210;16.338;2023-03-14T14:52:34;2.95;;;1.40;;
74898;SDS011;63458;48.210;16.338;2023-03-14T14:55:02;2.42;;;1.13;;
74898;SDS011;63458;48.210;16.338;2023-03-14T14:57:32;5.20;;;1.85;;
74898;SDS011;63458;48.210;16.338;2023-03-14T15:00:04;5.18;;;1.90;;
74898;SDS011;63458;48.210;16.338;2023-03-14T15:02:41;3.75;;;1.40;;
74898;SDS011;63458;48.210;16.338;2023-03-14T15:05:32;3.92;;;1.20;;
74898;SDS011;63458;48.210;16.338;2023-03-14T15:08:00;2.28;;;0.90;;
74898;SDS011;63458;48.210;16.338;2023-03-14T15:10:26;4.15;;;1.38;;
74898;SDS011;63458;48.210;16.338;2023-03-14T15:12:53;2.97;;;1.33;;
74898;SDS011;63458;48.210;16.338;2023-03-14T15:15:19;5.50;;;2.42;;
74898;SDS011;63458;48.210;16.338;2023-03-14T15:17:45;2.60;;;1.20;;
74898;SDS011;63458;48.210;16.338;2023-03-14T15:20:12;7.13;;;3.65;;
74898;SDS011;63458;48.210;16.338;2023-03-14T15:22:41;9.95;;;7.72;;
74898;SDS011;63458;48.210;16.338;2023-03-14T15:25:08;5.47;;;2.60;;
74898;SDS011;63458;48.210;16.338;2023-03-14T15:27:35;4.18;;;1.58;;
74898;SDS011;63458;48.210;16.338;2023-03-14T15:30:01;5.43;;;2.00;;
74898;SDS011;63458;48.210;16.338;2023-03-14T15:32:27;5.95;;;1.73;;
74898;SDS011;63458;48.210;16.338;2023-03-14T15:34:56;5.32;;;1.80;;
74898;SDS011;63458;48.210;16.338;2023-03-14T15:37:22;3.15;;;1.35;;